Time;durP1;ratioP1;P1;durP2;ratioP2;P2;SDS_P1;SDS_P2;PMS_P1;PMS_P2;Temp;Humidity;BMP_temperature;BMP_pressure;BME280_temperature;BME280_humidity;BME280_pressure;Samples;Min_cycle;Max_cycle;Signal;HPM_P1;HPM_P2
2022/05/12 00:00:44;;;;;;;;;;;;;;;16.72;57.55;99807.08;85547;1340;22612;-73
2022/05/12 00:02:49;;;;;;;;;;;;;;;16.71;57.51;99806.95;85540;1339;22490;-73
2022/05/12 00:04:54;;;;;;;;;;;;;;;16.69;57.59;99801.98;85539;1337;22445;-73
2022/05/12 00:06:59;;;;;;;;;;;;;;;16.67;57.67;99799.80;85555;1339;22556;-73
2022/05/12 00:09:04;;;;;;;;;;;;;;;16.66;57.73;99797.61;85535;1339;22499;-73
2022/05/12 00:11:08;;;;;;;;;;;;;;;16.65;57.85;99797.14;85545;1341;23115;-73
2022/05/12 00:13:13;;;;;;;;;;;;;;;16.65;57.89;99795.16;85554;1338;23163;-73
2022/05/12 00:15:18;;;;;;;;;;;;;;;16.67;57.85;99792.26;85540;1339;22483;-73
2022/05/12 00:17:23;;;;;;;;;;;;;;;16.67;57.98;99787.64;85552;1332;22508;-76
2022/05/12 00:19:27;;;;;;;;;;;;;;;16.69;57.84;99788.58;85545;1338;23267;-75
2022/05/12 00:21:33;;;;;;;;;;;;;;;16.70;57.93;99784.95;85556;1339;22467;-75
2022/05/12 00:23:37;;;;;;;;;;;;;;;16.70;57.97;99783.71;85553;1339;23158;-76
2022/05/12 00:25:42;;;;;;;;;;;;;;;16.72;57.90;99782.20;85522;1339;22632;-75
2022/05/12 00:27:47;;;;;;;;;;;;;;;16.76;58.09;99783.16;85561;1338;23157;-76
2022/05/12 00:29:51;;;;;;;;;;;;;;;16.82;57.89;99781.17;85563;1339;23157;-75
2022/05/12 00:31:59;;;;;;;;;;;;;;;16.83;57.82;99777.38;85571;1338;22998;-74
2022/05/12 00:34:03;;;;;;;;;;;;;;;16.86;57.77;99775.36;85548;1339;22504;-73
2022/05/12 00:36:08;;;;;;;;;;;;;;;16.90;57.63;99777.33;85550;1339;22539;-76
2022/05/12 00:38:13;;;;;;;;;;;;;;;16.92;57.59;99775.94;85550;1337;22596;-75
2022/05/12 00:40:18;;;;;;;;;;;;;;;16.96;57.49;99771.31;85544;1338;23130;-75
2022/05/12 00:42:26;;;;;;;;;;;;;;;17.00;57.40;99769.44;85557;1339;23165;-76
2022/05/12 00:44:30;;;;;;;;;;;;;;;17.03;57.27;99770.79;85554;1339;23336;-75
2022/05/12 00:46:37;;;;;;;;;;;;;;;17.06;57.22;99771.30;85564;1338;23142;-75
2022/05/12 00:48:41;;;;;;;;;;;;;;;17.07;57.20;99770.80;85552;1339;22505;-75
2022/05/12 00:50:49;;;;;;;;;;;;;;;17.10;57.07;99768.88;85560;1341;22477;-75
2022/05/12 00:52:54;;;;;;;;;;;;;;;17.12;57.10;99765.88;85548;1339;22601;-75
2022/05/12 00:55:00;;;;;;;;;;;;;;;17.13;57.05;99762.08;85571;1338;22493;-74
2022/05/12 00:57:04;;;;;;;;;;;;;;;17.14;56.95;99762.17;85567;1339;22547;-73
2022/05/12 00:59:10;;;;;;;;;;;;;;;17.16;56.90;99760.64;85563;1339;22520;-73
2022/05/12 01:01:15;;;;;;;;;;;;;;;17.18;56.86;99758.92;85556;1338;22510;-75
2022/05/12 01:03:22;;;;;;;;;;;;;;;17.20;56.84;99757.91;85558;1338;22629;-74
2022/05/12 01:05:26;;;;;;;;;;;;;;;17.21;56.75;99755.82;85553;1339;22498;-75
2022/05/12 01:07:31;;;;;;;;;;;;;;;17.22;56.68;99757.14;85551;1339;22614;-72
2022/05/12 01:09:36;;;;;;;;;;;;;;;17.23;56.54;99750.94;85543;1339;22502;-73
2022/05/12 01:11:44;;;;;;;;;;;;;;;17.24;56.57;99750.36;85560;1339;23180;-75
2022/05/12 01:13:49;;;;;;;;;;;;;;;17.24;56.48;99750.48;85554;1339;23162;-74
2022/05/12 01:15:55;;;;;;;;;;;;;;;17.27;56.55;99746.96;85552;1341;22541;-74
2022/05/12 01:18:04;;;;;;;;;;;;;;;17.28;56.38;99742.92;85447;1341;22502;-75
2022/05/12 01:20:13;;;;;;;;;;;;;;;17.30;56.31;99743.05;85443;1342;22547;-75
2022/05/12 01:22:34;;;;;;;;;;;;;;;17.31;56.23;99742.27;85576;1339;22482;-74
2022/05/12 01:24:39;;;;;;;;;;;;;;;17.31;56.18;99742.21;85541;1339;23220;-73
2022/05/12 01:26:43;;;;;;;;;;;;;;;17.32;56.10;99737.93;85541;1339;23239;-73
2022/05/12 01:28:49;;;;;;;;;;;;;;;17.33;56.07;99736.61;85548;1338;22476;-74
2022/05/12 01:30:54;;;;;;;;;;;;;;;17.34;56.08;99735.67;85561;1339;23081;-73
2022/05/12 01:32:58;;;;;;;;;;;;;;;17.34;55.98;99729.30;85564;1336;22465;-73
2022/05/12 01:35:04;;;;;;;;;;;;;;;17.37;56.03;99727.85;85551;1339;23093;-73
2022/05/12 01:37:09;;;;;;;;;;;;;;;17.40;56.02;99726.20;85555;1339;23162;-74
2022/05/12 01:39:13;;;;;;;;;;;;;;;17.43;55.77;99724.59;85560;1339;22490;-74
2022/05/12 01:41:18;;;;;;;;;;;;;;;17.45;55.64;99722.98;85561;1338;22460;-73
2022/05/12 01:43:22;;;;;;;;;;;;;;;17.46;55.76;99719.36;85551;1333;22547;-73
2022/05/12 01:45:27;;;;;;;;;;;;;;;17.48;55.70;99717.12;85551;1339;23147;-73
2022/05/12 01:47:32;;;;;;;;;;;;;;;17.50;55.53;99714.48;85568;1339;22435;-75
2022/05/12 01:49:43;;;;;;;;;;;;;;;17.50;55.43;99712.40;85395;1339;23228;-74
2022/05/12 01:51:47;;;;;;;;;;;;;;;17.50;55.49;99711.34;85563;1339;22490;-73
2022/05/12 01:53:52;;;;;;;;;;;;;;;17.51;55.39;99708.78;85559;1340;22515;-73
2022/05/12 01:55:57;;;;;;;;;;;;;;;17.51;55.25;99710.17;85565;1338;22557;-76
2022/05/12 01:58:05;;;;;;;;;;;;;;;17.51;55.28;99708.09;85554;1337;22435;-75
2022/05/12 02:00:15;;;;;;;;;;;;;;;17.51;55.40;99704.38;85556;1339;23393;-74
2022/05/12 02:02:20;;;;;;;;;;;;;;;17.51;55.20;99707.48;85553;1338;22509;-74
2022/05/12 02:04:24;;;;;;;;;;;;;;;17.51;55.13;99706.09;85563;1339;23225;-77
2022/05/12 02:06:29;;;;;;;;;;;;;;;17.50;55.13;99703.88;85570;1337;22541;-74
2022/05/12 02:08:33;;;;;;;;;;;;;;;17.49;55.16;99702.75;85558;1339;23072;-73
2022/05/12 02:10:42;;;;;;;;;;;;;;;17.48;55.16;99698.41;85553;1339;22582;-73
2022/05/12 02:12:50;;;;;;;;;;;;;;;17.48;55.04;99690.98;85556;1340;22471;-73
2022/05/12 02:14:57;;;;;;;;;;;;;;;17.49;55.04;99692.34;85555;1339;22476;-73
2022/05/12 02:17:05;;;;;;;;;;;;;;;17.49;54.97;99691.26;85559;1339;22718;-74
2022/05/12 02:19:11;;;;;;;;;;;;;;;17.48;54.92;99687.09;85684;1336;22468;-73
2022/05/12 02:21:15;;;;;;;;;;;;;;;17.48;54.89;99688.02;85694;1339;23086;-75
2022/05/12 02:23:23;;;;;;;;;;;;;;;17.47;54.84;99687.40;85684;1337;22472;-75
2022/05/12 02:25:27;;;;;;;;;;;;;;;17.45;54.93;99686.46;85553;1338;22481;-74
2022/05/12 02:27:32;;;;;;;;;;;;;;;17.45;54.84;99678.75;85491;1341;22494;-73
2022/05/12 02:29:39;;;;;;;;;;;;;;;17.44;54.84;99677.72;85543;1340;22603;-73
2022/05/12 02:31:44;;;;;;;;;;;;;;;17.44;54.71;99676.70;85682;1340;23159;-74
2022/05/12 02:33:52;;;;;;;;;;;;;;;17.44;54.84;99672.31;85684;1336;22518;-74
2022/05/12 02:35:57;;;;;;;;;;;;;;;17.46;54.72;99671.10;85696;1340;23195;-74
2022/05/12 02:38:04;;;;;;;;;;;;;;;17.46;54.64;99670.33;85562;1338;23069;-74
2022/05/12 02:40:14;;;;;;;;;;;;;;;17.46;54.56;99664.34;85541;1339;23118;-75
2022/05/12 02:42:19;;;;;;;;;;;;;;;17.47;54.58;99658.80;85685;1336;23195;-75
2022/05/12 02:44:23;;;;;;;;;;;;;;;17.49;54.55;99660.28;85496;1339;22458;-74
2022/05/12 02:46:28;;;;;;;;;;;;;;;17.53;54.50;99659.60;85657;1336;22599;-74
2022/05/12 02:48:33;;;;;;;;;;;;;;;17.54;54.47;99661.25;85533;1336;22566;-74
2022/05/12 02:50:42;;;;;;;;;;;;;;;17.55;54.38;99659.95;85680;1336;22478;-74
2022/05/12 02:52:47;;;;;;;;;;;;;;;17.57;54.26;99659.12;85564;1339;22489;-74
2022/05/12 02:54:52;;;;;;;;;;;;;;;17.57;54.25;99657.87;85553;1338;23184;-74
2022/05/12 02:56:56;;;;;;;;;;;;;;;17.58;54.28;99656.40;85569;1338;22498;-74
2022/05/12 02:59:01;;;;;;;;;;;;;;;17.59;54.16;99648.77;85683;1336;23084;-74
2022/05/12 03:01:05;;;;;;;;;;;;;;;17.59;54.01;99647.14;85659;1336;22476;-74
2022/05/12 03:03:13;;;;;;;;;;;;;;;17.60;53.99;99649.20;85646;1339;23134;-74
2022/05/12 03:05:20;;;;;;;;;;;;;;;17.62;53.95;99650.45;85540;1336;23099;-74
2022/05/12 03:07:28;;;;;;;;;;;;;;;17.64;54.03;99644.98;85518;1339;22520;-74
2022/05/12 03:09:32;;;;;;;;;;;;;;;17.66;53.94;99646.02;85544;1333;22558;-74
2022/05/12 03:11:37;;;;;;;;;;;;;;;17.68;53.82;99646.42;85552;1338;23206;-74
2022/05/12 03:13:42;;;;;;;;;;;;;;;17.68;53.77;99646.75;85672;1337;23060;-74
2022/05/12 03:15:47;;;;;;;;;;;;;;;17.69;53.73;99645.30;85664;1336;22534;-74
2022/05/12 03:17:51;;;;;;;;;;;;;;;17.70;53.75;99643.13;85674;1340;23140;-74
2022/05/12 03:19:56;;;;;;;;;;;;;;;17.70;53.69;99641.55;85472;1339;22514;-74
2022/05/12 03:22:01;;;;;;;;;;;;;;;17.71;53.60;99639.33;85652;1336;22483;-75
2022/05/12 03:24:06;;;;;;;;;;;;;;;17.73;53.58;99635.80;85528;1337;22453;-74
2022/05/12 03:26:14;;;;;;;;;;;;;;;17.77;53.50;99637.63;85511;1336;22510;-74
2022/05/12 03:28:18;;;;;;;;;;;;;;;17.79;53.51;99636.38;85647;1339;23156;-74
2022/05/12 03:30:24;;;;;;;;;;;;;;;17.84;53.34;99634.98;85654;1336;23267;-74
2022/05/12 03:32:29;;;;;;;;;;;;;;;17.87;53.45;99631.20;85532;1339;22491;-75
2022/05/12 03:34:33;;;;;;;;;;;;;;;17.90;53.34;99628.63;85648;1336;23171;-74
2022/05/12 03:36:39;;;;;;;;;;;;;;;17.94;53.18;99633.05;85644;1335;23053;-73
2022/05/12 03:38:43;;;;;;;;;;;;;;;18.00;53.05;99628.17;85536;1339;22518;-74
2022/05/12 03:40:51;;;;;;;;;;;;;;;18.05;53.07;99636.76;85634;1340;22515;-73
2022/05/12 03:42:58;;;;;;;;;;;;;;;18.12;52.93;99632.89;85649;1336;23274;-73
2022/05/12 03:45:03;;;;;;;;;;;;;;;18.19;52.90;99635.86;85666;1336;22452;-73
2022/05/12 03:47:12;;;;;;;;;;;;;;;18.37;52.88;99636.48;85671;1336;23080;-74
2022/05/12 03:49:17;;;;;;;;;;;;;;;18.78;52.93;99633.43;85654;1338;23286;-74
2022/05/12 03:51:22;;;;;;;;;;;;;;;19.23;52.37;99628.36;85440;1339;23269;-74
2022/05/12 03:53:27;;;;;;;;;;;;;;;19.44;51.27;99627.83;85665;1339;23154;-75
2022/05/12 03:55:31;;;;;;;;;;;;;;;19.50;50.72;99620.73;85540;1341;22472;-75
2022/05/12 03:57:36;;;;;;;;;;;;;;;19.58;50.42;99620.93;85664;1339;22620;-74
2022/05/12 03:59:42;;;;;;;;;;;;;;;19.57;50.10;99622.98;85547;1339;22510;-75
2022/05/12 04:01:47;;;;;;;;;;;;;;;19.50;49.89;99623.07;85688;1337;22483;-73
2022/05/12 04:03:55;;;;;;;;;;;;;;;19.41;49.84;99619.91;85677;1337;23222;-74
2022/05/12 04:06:00;;;;;;;;;;;;;;;19.31;49.89;99610.54;85680;1339;23205;-74
2022/05/12 04:08:06;;;;;;;;;;;;;;;19.26;50.01;99612.25;85579;1338;22521;-74
2022/05/12 04:10:11;;;;;;;;;;;;;;;19.26;50.14;99613.65;85593;1340;22490;-74
2022/05/12 04:12:17;;;;;;;;;;;;;;;19.26;50.32;99615.59;85686;1339;22514;-73
2022/05/12 04:14:21;;;;;;;;;;;;;;;19.32;50.26;99610.48;85688;1339;22569;-73
2022/05/12 04:16:26;;;;;;;;;;;;;;;19.35;50.22;99604.55;85475;1339;23176;-75
2022/05/12 04:18:30;;;;;;;;;;;;;;;19.42;50.17;99602.31;85668;1336;23169;-74
2022/05/12 04:20:38;;;;;;;;;;;;;;;19.51;50.04;99605.23;85677;1336;22515;-74
2022/05/12 04:22:43;;;;;;;;;;;;;;;19.60;49.84;99606.62;85662;1337;23103;-75
2022/05/12 04:24:48;;;;;;;;;;;;;;;19.71;49.71;99603.92;85669;1337;23177;-75
2022/05/12 04:26:52;;;;;;;;;;;;;;;19.82;49.56;99604.75;85575;1339;23168;-76
2022/05/12 04:28:57;;;;;;;;;;;;;;;19.91;49.40;99602.11;85667;1339;23005;-76
2022/05/12 04:31:02;;;;;;;;;;;;;;;19.99;49.30;99601.45;85691;1339;22541;-73
2022/05/12 04:35:34;;;;;;;;;;;;;;;20.07;48.95;99609.55;85463;1339;23144;-73
2022/05/12 04:37:39;;;;;;;;;;;;;;;20.13;48.96;99602.81;85680;1336;22538;-76
2022/05/12 04:39:43;;;;;;;;;;;;;;;20.30;48.62;99608.70;85677;1339;22579;-76
2022/05/12 04:41:48;;;;;;;;;;;;;;;20.66;48.09;99600.28;85675;1337;23126;-73
2022/05/12 04:43:54;;;;;;;;;;;;;;;21.35;48.11;99601.31;85683;1336;23234;-73
2022/05/12 04:45:59;;;;;;;;;;;;;;;22.27;47.36;99599.93;85671;1339;22544;-74
2022/05/12 04:48:04;;;;;;;;;;;;;;;23.08;45.49;99593.09;85688;1336;22517;-74
2022/05/12 04:50:10;;;;;;;;;;;;;;;23.81;44.71;99597.82;85666;1336;23299;-73
2022/05/12 04:52:15;;;;;;;;;;;;;;;24.67;42.94;99594.27;85681;1336;23096;-71
2022/05/12 04:54:19;;;;;;;;;;;;;;;25.55;41.99;99587.19;85675;1337;23259;-71
2022/05/12 04:56:24;;;;;;;;;;;;;;;26.41;40.18;99590.55;85676;1336;22622;-73
2022/05/12 04:58:28;;;;;;;;;;;;;;;27.18;38.14;99579.61;85677;1339;22602;-74
2022/05/12 05:00:40;;;;;;;;;;;;;;;27.86;37.26;99578.63;85675;1337;22504;-77
2022/05/12 05:02:44;;;;;;;;;;;;;;;28.67;36.05;99575.90;85673;1337;22588;-73
2022/05/12 05:04:49;;;;;;;;;;;;;;;29.26;33.98;99579.62;85484;1336;237614;-75
2022/05/12 05:06:58;;;;;;;;;;;;;;;29.57;33.50;99568.31;85679;1339;23109;-68
2022/05/12 05:09:07;;;;;;;;;;;;;;;29.87;32.02;99573.67;85663;1339;22462;-68
2022/05/12 05:11:12;;;;;;;;;;;;;;;29.79;32.07;99575.30;85670;1336;22455;-76
2022/05/12 05:13:18;;;;;;;;;;;;;;;29.55;31.56;99578.05;85651;1337;23203;-74
2022/05/12 05:15:26;;;;;;;;;;;;;;;29.41;31.71;99575.43;85653;1336;22918;-74
2022/05/12 05:17:31;;;;;;;;;;;;;;;29.40;31.95;99571.04;85677;1336;23155;-74
2022/05/12 05:19:35;;;;;;;;;;;;;;;29.67;31.31;99566.67;85664;1339;23007;-73
2022/05/12 05:21:40;;;;;;;;;;;;;;;29.94;31.42;99567.96;85656;1339;23105;-78
2022/05/12 05:23:45;;;;;;;;;;;;;;;29.76;30.66;99566.04;85657;1336;23231;-70
2022/05/12 05:25:51;;;;;;;;;;;;;;;29.27;30.74;99567.66;85636;1339;22660;-72
2022/05/12 05:27:56;;;;;;;;;;;;;;;28.96;31.73;99574.70;85642;1339;23059;-72
2022/05/12 05:30:00;;;;;;;;;;;;;;;29.36;31.33;99565.09;85665;1338;22461;-72
2022/05/12 05:32:06;;;;;;;;;;;;;;;29.95;31.13;99563.32;85675;1336;22486;-76
2022/05/12 05:34:12;;;;;;;;;;;;;;;30.61;30.34;99559.20;85666;1337;22609;-77
2022/05/12 05:36:16;;;;;;;;;;;;;;;31.21;30.01;99567.89;85654;1336;22514;-72
2022/05/12 05:38:21;;;;;;;;;;;;;;;31.82;29.01;99566.77;85676;1336;22580;-72
2022/05/12 05:40:26;;;;;;;;;;;;;;;32.33;28.05;99568.57;85654;1336;23088;-74
2022/05/12 05:42:31;;;;;;;;;;;;;;;32.79;27.57;99566.90;85674;1336;23150;-72
2022/05/12 05:44:36;;;;;;;;;;;;;;;33.31;27.18;99563.21;85669;1339;22584;-71
2022/05/12 05:46:41;;;;;;;;;;;;;;;33.67;26.17;99563.20;85674;1336;22894;-72
2022/05/12 05:48:50;;;;;;;;;;;;;;;33.84;26.12;99567.81;85648;1336;22445;-72
2022/05/12 05:53:26;;;;;;;;;;;;;;;34.18;25.33;99557.34;85646;1336;22456;-74
2022/05/12 05:55:30;;;;;;;;;;;;;;;34.59;24.90;99563.11;85648;1336;23070;-74
2022/05/12 05:57:38;;;;;;;;;;;;;;;34.84;24.55;99555.73;85668;1339;22550;-75
2022/05/12 05:59:45;;;;;;;;;;;;;;;35.09;24.00;99554.75;85659;1336;22511;-76
2022/05/12 06:01:50;;;;;;;;;;;;;;;35.47;24.09;99560.09;85660;1339;22505;-73
2022/05/12 06:03:56;;;;;;;;;;;;;;;35.92;23.63;99560.02;85663;1336;22517;-74
2022/05/12 06:06:01;;;;;;;;;;;;;;;36.36;23.13;99561.64;85641;1336;23167;-74
2022/05/12 06:08:08;;;;;;;;;;;;;;;36.77;22.46;99567.71;85508;1339;23026;-75
2022/05/12 06:10:13;;;;;;;;;;;;;;;37.16;22.13;99560.50;85555;1337;22551;-74
2022/05/12 06:12:21;;;;;;;;;;;;;;;37.52;21.68;99559.96;85653;1339;23173;-76
2022/05/12 06:14:26;;;;;;;;;;;;;;;37.74;21.38;99565.40;85574;1339;22497;-75
2022/05/12 06:16:31;;;;;;;;;;;;;;;37.72;20.78;99560.02;85651;1338;23179;-79
2022/05/12 06:18:37;;;;;;;;;;;;;;;37.70;20.87;99564.98;85664;1336;22495;-77
2022/05/12 06:20:43;;;;;;;;;;;;;;;37.73;20.76;99566.32;85642;1336;23162;-78
2022/05/12 06:22:51;;;;;;;;;;;;;;;37.88;20.87;99560.92;85663;1338;22483;-73
2022/05/12 06:24:59;;;;;;;;;;;;;;;38.15;20.70;99558.76;85650;1336;23145;-73
2022/05/12 06:27:04;;;;;;;;;;;;;;;38.34;20.10;99558.08;85522;1339;22515;-75
2022/05/12 06:29:12;;;;;;;;;;;;;;;38.40;20.08;99565.89;85646;1339;23155;-75
2022/05/12 06:31:20;;;;;;;;;;;;;;;38.52;20.08;99567.52;85680;1336;22507;-75
2022/05/12 06:33:25;;;;;;;;;;;;;;;38.70;19.65;99561.96;85660;1336;23203;-72
2022/05/12 06:35:30;;;;;;;;;;;;;;;38.73;19.39;99567.24;85658;1336;23109;-73
2022/05/12 06:37:35;;;;;;;;;;;;;;;38.86;19.67;99574.41;85648;1336;22484;-74
2022/05/12 06:39:40;;;;;;;;;;;;;;;39.18;19.58;99569.91;85653;1339;22504;-74
2022/05/12 06:41:44;;;;;;;;;;;;;;;39.49;18.91;99574.06;85552;1339;22703;-75
2022/05/12 06:43:49;;;;;;;;;;;;;;;39.68;19.11;99576.52;85649;1336;23178;-75
2022/05/12 06:45:57;;;;;;;;;;;;;;;39.86;19.01;99576.35;85661;1339;22527;-75
2022/05/12 06:48:02;;;;;;;;;;;;;;;40.12;19.02;99570.77;85655;1336;23185;-75
2022/05/12 06:50:08;;;;;;;;;;;;;;;40.43;18.58;99570.10;85664;1337;22733;-75
2022/05/12 06:52:12;;;;;;;;;;;;;;;40.70;18.24;99566.09;85659;1336;22495;-77
2022/05/12 06:54:17;;;;;;;;;;;;;;;40.74;18.27;99572.17;85567;1339;22488;-76
2022/05/12 06:56:22;;;;;;;;;;;;;;;40.74;18.12;99571.36;85571;1339;23115;-76
2022/05/12 06:58:27;;;;;;;;;;;;;;;40.90;17.90;99575.13;85497;1334;22512;-76
2022/05/12 07:00:34;;;;;;;;;;;;;;;40.84;17.40;99571.29;85651;1336;22512;-76
2022/05/12 07:02:42;;;;;;;;;;;;;;;40.86;17.84;99573.27;85649;1337;23127;-76
2022/05/12 07:04:47;;;;;;;;;;;;;;;41.02;17.23;99573.20;85650;1336;22625;-76
2022/05/12 07:06:51;;;;;;;;;;;;;;;41.04;17.23;99575.23;85655;1332;23036;-76
2022/05/12 07:08:57;;;;;;;;;;;;;;;41.25;17.01;99573.42;85579;1339;22483;-76
2022/05/12 07:11:04;;;;;;;;;;;;;;;41.52;17.22;99582.94;85575;1341;22483;-74
2022/05/12 07:13:09;;;;;;;;;;;;;;;41.45;16.76;99581.20;85586;1341;22629;-72
2022/05/12 07:15:16;;;;;;;;;;;;;;;41.59;16.81;99578.40;85569;1340;23216;-72
2022/05/12 07:17:23;;;;;;;;;;;;;;;41.88;16.36;99573.66;85646;1337;22510;-73
2022/05/12 07:19:33;;;;;;;;;;;;;;;41.95;15.82;99576.64;85657;1337;22512;-73
2022/05/12 07:26:36;;;;;;;;;;;;;;;41.79;15.65;99589.41;85106;1340;23374;-73
2022/05/12 07:28:43;;;;;;;;;;;;;;;40.97;16.29;99601.63;85564;1337;22541;-73
2022/05/12 07:31:05;;;;;;;;;;;;;;;40.65;16.62;99601.15;85561;1337;23151;-72
2022/05/12 07:33:11;;;;;;;;;;;;;;;40.01;16.79;99611.34;85485;1338;22482;-74
2022/05/12 07:35:16;;;;;;;;;;;;;;;40.02;17.23;99620.23;85552;1335;23229;-79
2022/05/12 07:37:25;;;;;;;;;;;;;;;39.78;17.11;99625.36;85651;1336;22488;-73
2022/05/12 07:39:30;;;;;;;;;;;;;;;39.64;17.60;99627.05;85579;1339;22975;-74
2022/05/12 07:41:41;;;;;;;;;;;;;;;39.50;17.69;99631.08;85575;1338;23261;-75
2022/05/12 07:43:49;;;;;;;;;;;;;;;39.82;17.85;99642.08;85482;1339;23088;-75
2022/05/12 07:45:53;;;;;;;;;;;;;;;40.17;17.51;99646.88;85570;1337;22525;-75
2022/05/12 07:47:59;;;;;;;;;;;;;;;40.28;17.67;99654.90;85645;1336;22494;-84
2022/05/12 07:50:05;;;;;;;;;;;;;;;40.55;17.79;99653.75;85650;1336;22490;-76
2022/05/12 07:52:14;;;;;;;;;;;;;;;40.94;17.57;99657.34;85564;1339;23109;-77
2022/05/12 07:54:18;;;;;;;;;;;;;;;40.60;16.82;99667.02;85439;1339;23052;-78
2022/05/12 07:56:25;;;;;;;;;;;;;;;39.71;16.74;99675.05;85593;1339;22513;-78
2022/05/12 07:58:30;;;;;;;;;;;;;;;38.48;17.76;99677.73;85661;1336;22493;-78
2022/05/12 08:00:35;;;;;;;;;;;;;;;37.40;18.55;99680.23;85569;1338;23205;-78
2022/05/12 08:02:42;;;;;;;;;;;;;;;36.50;19.44;99686.67;85572;1339;22605;-78
2022/05/12 08:04:47;;;;;;;;;;;;;;;35.77;20.20;99699.02;85649;1336;22503;-78
2022/05/12 08:06:55;;;;;;;;;;;;;;;35.29;20.92;99706.07;85633;1336;22500;-74
2022/05/12 08:08:59;;;;;;;;;;;;;;;34.90;21.54;99720.02;85649;1339;23194;-79
2022/05/12 08:11:05;;;;;;;;;;;;;;;34.74;21.77;99726.42;85650;1336;22912;-78
2022/05/12 08:13:14;;;;;;;;;;;;;;;34.94;22.04;99726.64;85453;1339;22490;-78
2022/05/12 08:15:19;;;;;;;;;;;;;;;34.77;22.13;99734.56;85572;1337;23012;-78
2022/05/12 08:17:24;;;;;;;;;;;;;;;34.67;22.05;99736.13;85644;1336;23209;-73
2022/05/12 08:19:31;;;;;;;;;;;;;;;34.09;22.06;99740.69;85665;1336;22475;-73
2022/05/12 08:21:39;;;;;;;;;;;;;;;33.23;22.76;99743.08;85412;1342;22628;-73
2022/05/12 08:23:44;;;;;;;;;;;;;;;32.46;23.67;99754.84;85645;1333;22519;-73
2022/05/12 08:25:50;;;;;;;;;;;;;;;31.75;24.20;99771.55;85566;1338;22556;-72
2022/05/12 08:27:55;;;;;;;;;;;;;;;31.03;24.99;99788.32;85567;1338;23198;-73
2022/05/12 08:30:03;;;;;;;;;;;;;;;30.36;25.80;99802.40;85565;1339;23037;-73
2022/05/12 08:32:09;;;;;;;;;;;;;;;29.76;26.61;99814.06;85652;1336;23005;-72
2022/05/12 08:34:13;;;;;;;;;;;;;;;29.27;27.14;99812.38;85649;1339;22506;-74
2022/05/12 08:36:19;;;;;;;;;;;;;;;28.76;27.91;99819.60;85320;1341;22521;-76
2022/05/12 08:38:25;;;;;;;;;;;;;;;28.27;28.68;99830.23;85573;1337;22490;-73
2022/05/12 08:40:34;;;;;;;;;;;;;;;27.97;29.01;99822.24;85647;1337;22495;-73
2022/05/12 08:42:42;;;;;;;;;;;;;;;27.85;29.61;99832.14;85669;1339;22601;-80
2022/05/12 08:44:46;;;;;;;;;;;;;;;27.83;30.15;99842.21;85653;1333;22434;-87
2022/05/12 08:46:54;;;;;;;;;;;;;;;27.99;30.01;99846.39;85632;1336;22591;-73
2022/05/12 08:49:07;;;;;;;;;;;;;;;28.24;29.61;99852.66;85650;1336;22506;-74
2022/05/12 08:51:13;;;;;;;;;;;;;;;28.46;29.41;99857.70;85648;1340;22498;-83
2022/05/12 08:53:19;;;;;;;;;;;;;;;28.58;28.94;99857.39;85569;1334;22470;-73
2022/05/12 08:55:27;;;;;;;;;;;;;;;28.72;28.86;99866.02;85614;1336;22537;-73
2022/05/12 08:57:33;;;;;;;;;;;;;;;28.78;28.97;99868.47;85648;1340;23053;-84
2022/05/12 08:59:38;;;;;;;;;;;;;;;28.70;28.91;99879.91;85634;1340;23024;-84
2022/05/12 09:01:53;;;;;;;;;;;;;;;28.48;28.98;99884.55;85482;1338;22611;-84
2022/05/12 09:04:09;;;;;;;;;;;;;;;28.14;29.31;99887.73;85645;1339;23055;-83
2022/05/12 09:06:16;;;;;;;;;;;;;;;27.80;29.86;99880.22;85573;1339;22523;-84
2022/05/12 09:08:27;;;;;;;;;;;;;;;27.55;30.21;99883.81;85665;1338;22520;-81
2022/05/12 09:10:39;;;;;;;;;;;;;;;27.37;30.45;99881.06;85658;1336;23183;-83
2022/05/12 09:12:47;;;;;;;;;;;;;;;27.32;30.63;99882.17;85657;1336;22573;-74
2022/05/12 09:14:55;;;;;;;;;;;;;;;27.42;31.00;99891.48;85661;1339;23068;-74
2022/05/12 09:17:00;;;;;;;;;;;;;;;27.35;31.30;99888.84;85535;1340;23212;-84
2022/05/12 09:19:05;;;;;;;;;;;;;;;27.36;31.39;99891.55;85571;1339;23078;-84
2022/05/12 09:21:11;;;;;;;;;;;;;;;27.31;31.29;99898.67;85430;1339;22476;-73
2022/05/12 09:23:16;;;;;;;;;;;;;;;27.13;31.15;99897.16;85572;1337;22469;-73
2022/05/12 09:25:36;;;;;;;;;;;;;;;27.02;31.48;99899.45;85572;1338;22466;-73
2022/05/12 09:27:44;;;;;;;;;;;;;;;26.98;31.68;99906.02;85640;1336;23149;-74
2022/05/12 09:29:49;;;;;;;;;;;;;;;26.92;31.07;99904.98;85570;1339;23393;-74
2022/05/12 09:31:55;;;;;;;;;;;;;;;26.82;30.82;99910.71;85659;1339;22495;-82
2022/05/12 09:34:18;;;;;;;;;;;;;;;26.63;30.94;99917.17;85491;1339;22518;-81
2022/05/12 09:36:28;;;;;;;;;;;;;;;26.48;31.48;99926.64;85572;1338;23165;-81
2022/05/12 09:38:39;;;;;;;;;;;;;;;26.39;32.07;99931.83;85467;1339;23056;-83
2022/05/12 09:40:44;;;;;;;;;;;;;;;26.44;32.02;99938.05;85549;1339;23106;-83
2022/05/12 09:42:50;;;;;;;;;;;;;;;26.67;31.86;99943.48;85651;1336;23065;-84
2022/05/12 09:44:56;;;;;;;;;;;;;;;26.88;31.84;99943.85;85659;1339;22475;-82
2022/05/12 09:47:02;;;;;;;;;;;;;;;26.98;31.47;99947.43;85664;1336;23216;-74
2022/05/12 09:49:18;;;;;;;;;;;;;;;27.03;31.45;99957.57;85648;1336;23181;-73
2022/05/12 09:51:30;;;;;;;;;;;;;;;27.18;31.22;99967.48;85650;1337;22437;-81
2022/05/12 09:53:35;;;;;;;;;;;;;;;27.37;30.85;99972.04;85646;1336;23034;-83
2022/05/12 09:55:41;;;;;;;;;;;;;;;27.38;31.00;99977.50;85654;1337;22529;-83
2022/05/12 09:57:54;;;;;;;;;;;;;;;27.39;31.16;99978.61;85657;1338;23174;-73
2022/05/12 10:00:00;;;;;;;;;;;;;;;27.49;31.14;99982.16;85648;1339;23202;-73
2022/05/12 10:02:05;;;;;;;;;;;;;;;27.48;30.92;99993.59;85664;1336;23198;-81
2022/05/12 10:09:06;;;;;;;;;;;;;;;26.56;31.42;100021.30;85647;1336;22495;-80
2022/05/12 10:11:14;;;;;;;;;;;;;;;26.26;31.36;100032.70;85666;1339;23126;-81
2022/05/12 10:13:25;;;;;;;;;;;;;;;25.93;31.85;100040.02;85678;1339;23158;-81
2022/05/12 10:15:34;;;;;;;;;;;;;;;25.78;32.05;100046.69;85487;1339;23273;-79
2022/05/12 10:17:41;;;;;;;;;;;;;;;25.88;32.10;100053.62;85483;1338;22583;-72
2022/05/12 10:19:46;;;;;;;;;;;;;;;26.17;31.49;100044.77;85566;1338;23128;-73
2022/05/12 10:21:56;;;;;;;;;;;;;;;26.49;31.16;100045.69;85667;1339;22483;-80
2022/05/12 10:24:06;;;;;;;;;;;;;;;26.76;30.72;100045.23;85673;1339;23036;-81
2022/05/12 10:26:12;;;;;;;;;;;;;;;27.05;30.81;100047.85;85657;1336;23222;-80
2022/05/12 10:28:19;;;;;;;;;;;;;;;27.29;29.68;100049.00;85646;1336;22462;-83
2022/05/12 10:30:32;;;;;;;;;;;;;;;27.36;29.73;100054.77;85660;1339;22694;-82
2022/05/12 10:32:43;;;;;;;;;;;;;;;27.42;29.42;100059.42;85665;1338;22466;-82
2022/05/12 10:34:51;;;;;;;;;;;;;;;27.37;29.53;100063.83;85658;1336;23064;-83
2022/05/12 10:37:00;;;;;;;;;;;;;;;27.22;29.35;100067.66;85673;1339;23183;-73
2022/05/12 10:39:12;;;;;;;;;;;;;;;26.90;29.21;100065.01;85661;1339;22455;-73
2022/05/12 10:41:22;;;;;;;;;;;;;;;26.39;29.71;100064.90;85673;1336;23007;-82
2022/05/12 10:43:42;;;;;;;;;;;;;;;26.23;30.53;100065.12;85663;1333;22906;-80
2022/05/12 10:45:53;;;;;;;;;;;;;;;26.26;30.73;100067.73;85678;1336;22561;-80
2022/05/12 10:48:08;;;;;;;;;;;;;;;26.36;30.98;100070.71;85660;1339;22580;-81
2022/05/12 10:50:19;;;;;;;;;;;;;;;26.50;31.10;100069.44;85664;1339;22458;-82
2022/05/12 10:52:29;;;;;;;;;;;;;;;26.55;31.03;100067.77;85673;1339;23064;-74
2022/05/12 10:54:36;;;;;;;;;;;;;;;26.53;30.90;100071.05;85660;1339;23161;-74
2022/05/12 10:56:47;;;;;;;;;;;;;;;26.61;31.12;100074.34;85697;1336;23220;-82
2022/05/12 10:58:55;;;;;;;;;;;;;;;26.58;30.85;100077.42;85660;1339;22488;-82
2022/05/12 11:01:13;;;;;;;;;;;;;;;26.37;30.31;100086.36;85673;1336;23110;-82
2022/05/12 11:03:21;;;;;;;;;;;;;;;26.16;30.48;100082.34;85569;1339;23208;-83
2022/05/12 11:05:32;;;;;;;;;;;;;;;26.21;30.76;100085.73;85665;1339;22525;-83
2022/05/12 11:07:38;;;;;;;;;;;;;;;26.24;30.75;100080.77;85677;1336;23033;-84
2022/05/12 11:09:45;;;;;;;;;;;;;;;26.18;30.95;100073.02;85677;1336;23118;-83
2022/05/12 11:11:50;;;;;;;;;;;;;;;26.21;30.92;100080.37;85664;1336;23304;-82